createdAt,value
2023-02-23T00:01:25.837Z,20.73
2023-02-23T00:03:56.206Z,20.02
2023-02-23T00:06:24.710Z,20.90
2023-02-23T00:08:52.341Z,20.17
2023-02-23T00:11:20.234Z,19.95
2023-02-23T00:13:50.038Z,22.02
2023-02-23T00:16:22.681Z,27.83
2023-02-23T00:18:53.629Z,21.17
2023-02-23T00:21:29.268Z,19.45
2023-02-23T00:24:00.952Z,18.42
2023-02-23T00:26:31.565Z,17.50
2023-02-23T00:28:58.557Z,18.40
2023-02-23T00:31:27.259Z,19.05
2023-02-23T00:33:56.912Z,19.30
2023-02-23T00:36:26.631Z,21.55
2023-02-23T00:39:00.346Z,22.42
2023-02-23T00:41:30.804Z,23.48
2023-02-23T00:43:59.322Z,23.20
2023-02-23T00:46:28.642Z,22.38
2023-02-23T00:48:57.086Z,24.65
2023-02-23T00:51:32.508Z,22.40
2023-02-23T00:54:00.579Z,25.00
2023-02-23T00:56:27.920Z,21.55
2023-02-23T00:58:55.546Z,22.10
2023-02-23T01:01:23.273Z,20.13
2023-02-23T01:03:50.731Z,22.30
2023-02-23T01:06:17.681Z,21.20
2023-02-23T01:08:49.062Z,24.70
2023-02-23T01:11:21.786Z,24.63
2023-02-23T01:13:52.071Z,23.60
2023-02-23T01:16:21.314Z,25.80
2023-02-23T01:18:48.951Z,22.75
2023-02-23T01:21:22.808Z,21.92
2023-02-23T01:23:50.753Z,21.80
2023-02-23T01:26:19.170Z,20.70
2023-02-23T01:28:57.949Z,25.45
2023-02-23T01:31:26.024Z,25.80
2023-02-23T01:34:01.647Z,23.65
2023-02-23T01:36:32.611Z,23.60
2023-02-23T01:39:00.114Z,19.92
2023-02-23T01:41:32.815Z,21.65
2023-02-23T01:44:20.039Z,21.55
2023-02-23T01:46:49.266Z,25.08
2023-02-23T01:49:23.504Z,26.50
2023-02-23T01:54:33.193Z,21.92
2023-02-23T01:57:02.722Z,34.88
2023-02-23T01:59:41.925Z,33.65
2023-02-23T02:02:09.424Z,31.10
2023-02-23T02:04:44.686Z,36.15
2023-02-23T02:07:16.050Z,30.92
2023-02-23T02:10:04.286Z,32.33
2023-02-23T02:12:31.043Z,36.15
2023-02-23T02:14:59.987Z,37.05
2023-02-23T02:17:41.685Z,34.67
2023-02-23T02:20:52.277Z,38.15
2023-02-23T02:23:53.414Z,33.92
2023-02-23T02:26:24.252Z,34.63
2023-02-23T02:29:28.748Z,35.67
2023-02-23T02:32:24.527Z,36.80
2023-02-23T02:35:18.932Z,33.92
2023-02-23T02:38:03.825Z,32.53
2023-02-23T02:43:11.519Z,31.58
2023-02-23T02:45:44.520Z,29.92
2023-02-23T02:48:14.296Z,31.88
2023-02-23T02:50:52.974Z,32.95
2023-02-23T02:53:47.394Z,31.33
2023-02-23T02:56:19.782Z,28.98
2023-02-23T02:58:50.066Z,31.67
2023-02-23T03:01:36.868Z,28.45
2023-02-23T03:04:39.436Z,33.05
2023-02-23T03:07:39.192Z,31.02
2023-02-23T03:10:38.438Z,36.05
2023-02-23T03:13:29.503Z,35.05
2023-02-23T03:16:47.267Z,34.40
2023-02-23T03:19:42.304Z,32.85
2023-02-23T03:22:36.877Z,33.78
2023-02-23T03:25:25.379Z,42.03
2023-02-23T03:28:50.117Z,35.00
2023-02-23T03:32:03.160Z,30.52
2023-02-23T03:35:14.249Z,32.00
2023-02-23T03:38:06.777Z,28.05
2023-02-23T03:40:56.431Z,32.97
2023-02-23T03:43:55.722Z,31.85
2023-02-23T03:46:43.976Z,31.85
2023-02-23T03:49:31.649Z,30.35
2023-02-23T03:52:22.542Z,31.17
2023-02-23T03:55:14.539Z,31.40
2023-02-23T03:58:02.262Z,29.27
2023-02-23T04:00:51.080Z,32.13
2023-02-23T04:03:38.259Z,31.77
2023-02-23T04:06:28.584Z,32.08
2023-02-23T04:09:18.285Z,34.47
2023-02-23T04:12:25.844Z,37.35
2023-02-23T04:15:01.680Z,32.55
2023-02-23T04:17:30.048Z,34.00
2023-02-23T04:19:57.098Z,34.88
2023-02-23T04:22:24.358Z,35.10
2023-02-23T04:24:51.442Z,35.15
2023-02-23T04:27:18.362Z,33.53
2023-02-23T04:29:45.348Z,34.45
2023-02-23T04:32:18.636Z,33.70
2023-02-23T04:34:45.570Z,34.03
2023-02-23T04:37:12.713Z,34.88
2023-02-23T04:39:39.710Z,34.80
2023-02-23T04:42:06.430Z,37.00
2023-02-23T04:44:33.095Z,37.83
2023-02-23T04:46:59.772Z,35.72
2023-02-23T04:49:26.502Z,39.92
2023-02-23T04:51:53.154Z,40.05
2023-02-23T04:54:19.826Z,34.50
2023-02-23T04:56:46.544Z,34.78
2023-02-23T04:59:13.315Z,36.75
2023-02-23T05:01:40.256Z,38.75
2023-02-23T05:04:07.010Z,40.55
2023-02-23T05:06:34.213Z,36.17
2023-02-23T05:09:00.879Z,41.85
2023-02-23T05:11:27.819Z,40.80
2023-02-23T05:13:54.622Z,38.08
2023-02-23T05:16:21.559Z,36.80
2023-02-23T05:18:48.430Z,36.60
2023-02-23T05:21:15.424Z,35.97
2023-02-23T05:23:42.258Z,36.00
2023-02-23T05:26:12.147Z,41.97
2023-02-23T05:28:40.470Z,38.55
2023-02-23T05:31:08.131Z,39.30
2023-02-23T05:33:42.277Z,34.58
2023-02-23T05:36:11.381Z,35.47
2023-02-23T05:38:39.724Z,37.60
2023-02-23T05:41:08.087Z,37.58
2023-02-23T05:43:35.160Z,36.45
2023-02-23T05:46:02.059Z,36.10
2023-02-23T05:48:29.508Z,38.35
2023-02-23T05:51:01.936Z,38.10
2023-02-23T05:53:28.693Z,36.53
2023-02-23T05:55:55.596Z,37.85
2023-02-23T05:58:22.485Z,36.80
2023-02-23T06:00:49.224Z,37.50
2023-02-23T06:03:16.022Z,38.72
2023-02-23T06:05:43.134Z,37.80
2023-02-23T06:08:09.810Z,37.30
2023-02-23T06:10:36.469Z,39.22
2023-02-23T06:13:03.914Z,36.15
2023-02-23T06:15:30.911Z,36.75
2023-02-23T06:17:57.568Z,34.50
2023-02-23T06:20:24.296Z,32.95
2023-02-23T06:22:50.956Z,34.20
2023-02-23T06:25:17.768Z,34.65
2023-02-23T06:27:45.411Z,30.95
2023-02-23T06:30:12.755Z,30.55
2023-02-23T06:32:39.490Z,31.42
2023-02-23T06:35:07.362Z,33.13
2023-02-23T06:37:35.251Z,36.03
2023-02-23T06:40:03.346Z,38.47
2023-02-23T06:42:30.031Z,36.30
2023-02-23T06:44:56.676Z,38.17
2023-02-23T06:47:23.407Z,40.47
2023-02-23T06:49:50.061Z,37.40
2023-02-23T06:52:16.788Z,38.63
2023-02-23T06:54:43.647Z,41.63
2023-02-23T06:57:11.278Z,39.83
2023-02-23T06:59:39.190Z,43.58
2023-02-23T07:02:06.268Z,40.75
2023-02-23T07:04:33.232Z,41.92
2023-02-23T07:06:59.915Z,36.65
2023-02-23T07:09:26.723Z,41.80
2023-02-23T07:11:53.382Z,40.33
2023-02-23T07:14:26.356Z,40.47
2023-02-23T07:16:54.166Z,41.55
2023-02-23T07:19:20.926Z,39.30
2023-02-23T07:21:47.797Z,34.42
2023-02-23T07:24:14.601Z,40.17
2023-02-23T07:26:43.497Z,40.35
2023-02-23T07:29:12.464Z,33.80
2023-02-23T07:31:40.114Z,37.95
2023-02-23T07:34:08.011Z,35.50
2023-02-23T07:36:35.540Z,38.53
2023-02-23T07:39:03.165Z,35.45
2023-02-23T07:41:29.817Z,39.17
2023-02-23T07:43:56.628Z,33.20
2023-02-23T07:46:23.414Z,36.67
2023-02-23T07:48:50.090Z,36.78
2023-02-23T07:51:17.757Z,34.78
2023-02-23T07:53:45.088Z,36.88
2023-02-23T07:56:12.990Z,36.10
2023-02-23T07:58:44.264Z,35.35
2023-02-23T08:01:12.362Z,34.80
2023-02-23T08:03:39.352Z,34.75
2023-02-23T08:06:06.889Z,37.97
2023-02-23T08:08:35.285Z,34.55
2023-02-23T08:11:04.689Z,31.55
2023-02-23T08:13:31.856Z,32.05
2023-02-23T08:15:59.036Z,31.67
2023-02-23T08:18:26.360Z,33.58
2023-02-23T08:21:02.368Z,34.13
2023-02-23T08:23:33.634Z,37.05
2023-02-23T08:26:01.789Z,34.42
2023-02-23T08:28:29.645Z,32.92
2023-02-23T08:30:56.991Z,34.38
2023-02-23T08:33:24.079Z,37.28
2023-02-23T08:35:53.511Z,32.10
2023-02-23T08:38:20.364Z,35.70
2023-02-23T08:40:47.404Z,33.50
2023-02-23T08:43:14.184Z,32.17
2023-02-23T08:45:40.914Z,31.95
2023-02-23T08:48:09.031Z,27.92
2023-02-23T08:50:35.895Z,29.63
2023-02-23T08:53:02.792Z,47.58
2023-02-23T08:55:29.477Z,31.10
2023-02-23T08:57:56.180Z,33.65
2023-02-23T09:00:23.362Z,33.40
2023-02-23T09:02:50.115Z,30.67
2023-02-23T09:05:17.133Z,32.33
2023-02-23T09:07:47.302Z,34.75
2023-02-23T09:10:16.356Z,38.28
2023-02-23T09:12:43.176Z,36.85
2023-02-23T09:15:10.305Z,29.77
2023-02-23T09:17:37.916Z,28.77
2023-02-23T09:20:05.696Z,29.65
2023-02-23T09:22:32.713Z,24.92
2023-02-23T09:24:59.578Z,25.67
2023-02-23T09:27:26.444Z,25.08
2023-02-23T09:29:53.179Z,25.23
2023-02-23T09:32:19.962Z,23.67
2023-02-23T09:34:48.607Z,28.73
2023-02-23T09:37:15.882Z,28.05
2023-02-23T09:39:43.606Z,23.70
2023-02-23T09:42:20.037Z,26.80
2023-02-23T09:44:57.647Z,30.20
2023-02-23T09:47:30.883Z,24.23
2023-02-23T09:50:02.993Z,24.60
2023-02-23T09:52:40.041Z,22.70
2023-02-23T09:55:09.782Z,24.17
2023-02-23T09:57:42.938Z,24.08
2023-02-23T10:00:27.448Z,24.52
2023-02-23T10:03:04.361Z,22.35
2023-02-23T10:05:35.680Z,37.22
2023-02-23T10:08:18.465Z,22.17
2023-02-23T10:10:50.949Z,19.10
2023-02-23T10:13:42.032Z,19.15
2023-02-23T10:16:27.469Z,18.60
2023-02-23T10:19:09.795Z,19.80
2023-02-23T10:21:44.815Z,17.25
2023-02-23T10:24:25.401Z,19.25
2023-02-23T10:27:06.351Z,18.33
2023-02-23T10:29:39.514Z,18.60
2023-02-23T10:32:22.479Z,22.20
2023-02-23T10:34:54.085Z,17.70
2023-02-23T10:37:21.103Z,18.45
2023-02-23T10:39:49.865Z,16.95
2023-02-23T10:42:23.144Z,16.77
2023-02-23T10:44:50.304Z,15.38
2023-02-23T10:47:21.250Z,18.08
2023-02-23T10:49:53.247Z,16.40
2023-02-23T10:52:33.630Z,17.52
2023-02-23T10:55:04.449Z,18.15
2023-02-23T10:57:34.140Z,18.83
2023-02-23T11:00:03.768Z,16.23
2023-02-23T11:02:30.975Z,19.17
2023-02-23T11:04:58.908Z,14.57
2023-02-23T11:07:32.436Z,18.00
2023-02-23T11:10:18.826Z,23.45
2023-02-23T11:12:45.538Z,56.72
2023-02-23T11:15:32.153Z,14.88
2023-02-23T11:18:04.742Z,23.90
2023-02-23T11:20:35.684Z,18.25
2023-02-23T11:23:17.424Z,14.15
2023-02-23T11:25:45.876Z,17.20
2023-02-23T11:28:22.402Z,15.65
2023-02-23T11:30:49.821Z,17.95
2023-02-23T11:33:31.491Z,15.15
2023-02-23T11:36:38.959Z,13.43
2023-02-23T11:39:10.413Z,16.17
2023-02-23T11:41:37.262Z,14.85
2023-02-23T11:44:06.365Z,15.80
2023-02-23T11:46:38.080Z,16.52
2023-02-23T11:49:14.873Z,17.85
2023-02-23T11:51:49.196Z,12.70
2023-02-23T11:54:34.006Z,13.88
2023-02-23T11:57:02.732Z,20.63
2023-02-23T11:59:33.928Z,19.05
2023-02-23T12:02:23.103Z,15.23
2023-02-23T12:05:16.098Z,15.43
2023-02-23T12:08:04.414Z,18.23
2023-02-23T12:10:55.569Z,14.23
2023-02-23T12:13:30.729Z,14.13
2023-02-23T12:16:04.973Z,11.65
2023-02-23T12:18:44.172Z,17.70
2023-02-23T12:21:41.979Z,10.98
2023-02-23T12:24:16.581Z,10.77
2023-02-23T12:26:55.501Z,9.10
2023-02-23T12:29:39.198Z,11.57
2023-02-23T12:32:17.969Z,12.30
2023-02-23T12:34:54.241Z,14.65
2023-02-23T12:37:29.067Z,14.82
2023-02-23T12:40:28.026Z,18.10
2023-02-23T12:43:01.570Z,9.65
2023-02-23T12:45:39.707Z,9.48
2023-02-23T12:48:15.678Z,12.20
2023-02-23T12:50:53.669Z,10.82
2023-02-23T12:53:32.524Z,11.27
2023-02-23T12:56:22.134Z,8.80
2023-02-23T12:59:19.768Z,12.65
2023-02-23T13:02:08.414Z,13.43
2023-02-23T13:05:15.883Z,16.13
2023-02-23T13:07:52.800Z,11.75
2023-02-23T13:10:38.585Z,25.15
2023-02-23T13:13:17.488Z,19.38
2023-02-23T13:16:05.700Z,13.77
2023-02-23T13:18:55.639Z,10.73
2023-02-23T13:21:58.163Z,10.27
2023-02-23T13:24:35.128Z,13.65
2023-02-23T13:27:23.797Z,11.60
2023-02-23T13:29:55.178Z,11.50
2023-02-23T13:32:32.451Z,13.55
2023-02-23T13:35:05.361Z,13.05
2023-02-23T13:37:41.043Z,13.95
2023-02-23T13:40:45.701Z,13.20
2023-02-23T13:43:52.220Z,11.30
2023-02-23T13:46:52.739Z,14.45
2023-02-23T13:49:41.946Z,12.43
2023-02-23T13:52:38.224Z,11.05
2023-02-23T13:55:24.936Z,11.77
2023-02-23T13:57:53.406Z,10.60
2023-02-23T14:00:21.643Z,8.88
2023-02-23T14:02:49.442Z,14.07
2023-02-23T14:05:25.876Z,13.73
2023-02-23T14:07:59.020Z,11.40
2023-02-23T14:10:29.609Z,9.40
2023-02-23T14:13:14.477Z,10.68
2023-02-23T14:18:21.006Z,16.02
2023-02-23T14:20:58.770Z,12.10
2023-02-23T14:23:26.269Z,11.98
2023-02-23T14:26:09.376Z,10.45
2023-02-23T14:28:39.210Z,19.40
2023-02-23T14:31:16.040Z,10.20
2023-02-23T14:33:43.001Z,7.57
2023-02-23T14:36:22.101Z,51.40
2023-02-23T14:39:02.952Z,15.60
2023-02-23T14:41:41.025Z,9.55
2023-02-23T14:44:29.032Z,8.63
2023-02-23T14:47:07.144Z,10.35
2023-02-23T14:49:43.452Z,10.60
2023-02-23T14:52:19.736Z,10.57
2023-02-23T14:54:46.770Z,10.23
2023-02-23T14:57:36.161Z,8.85
2023-02-23T15:00:27.651Z,32.80
2023-02-23T15:03:04.584Z,22.38
2023-02-23T15:05:42.755Z,12.90
2023-02-23T15:08:17.115Z,13.18
2023-02-23T15:10:46.300Z,12.80
2023-02-23T15:13:32.662Z,16.08
2023-02-23T15:16:05.375Z,8.70
2023-02-23T15:19:28.365Z,6.40
2023-02-23T15:21:57.459Z,10.75
2023-02-23T15:24:47.390Z,8.75
2023-02-23T15:27:44.143Z,8.95
2023-02-23T15:30:32.905Z,7.20
2023-02-23T15:33:13.818Z,8.10
2023-02-23T15:35:55.318Z,6.20
2023-02-23T15:38:42.956Z,5.68
2023-02-23T15:41:29.258Z,7.63
2023-02-23T15:44:05.639Z,7.18
2023-02-23T15:46:34.236Z,7.47
2023-02-23T15:49:03.507Z,7.50
2023-02-23T15:51:38.214Z,9.55
2023-02-23T15:54:16.312Z,9.10
2023-02-23T15:56:47.014Z,9.32
2023-02-23T15:59:23.957Z,9.65
2023-02-23T16:01:54.056Z,11.05
2023-02-23T16:04:25.874Z,10.15
2023-02-23T16:06:55.832Z,7.20
2023-02-23T16:09:24.189Z,5.13
2023-02-23T16:11:55.318Z,6.50
2023-02-23T16:14:24.318Z,4.70
2023-02-23T16:17:09.913Z,6.00
2023-02-23T16:19:41.062Z,4.63
2023-02-23T16:22:19.095Z,6.55
2023-02-23T16:24:48.942Z,5.35
2023-02-23T16:27:16.463Z,5.03
2023-02-23T16:29:43.218Z,6.10
2023-02-23T16:32:21.311Z,7.35
2023-02-23T16:34:51.127Z,7.05
2023-02-23T16:37:31.304Z,6.50
2023-02-23T16:39:58.087Z,6.63
2023-02-23T16:42:34.909Z,8.27
2023-02-23T16:45:02.124Z,5.95
2023-02-23T16:47:36.333Z,6.45
2023-02-23T16:50:20.462Z,8.70
2023-02-23T16:52:51.710Z,5.20
2023-02-23T16:55:25.698Z,6.75
2023-02-23T16:58:00.378Z,8.40
2023-02-23T17:00:30.321Z,7.72
2023-02-23T17:02:58.621Z,7.63
2023-02-23T17:05:25.391Z,8.77
2023-02-23T17:07:53.005Z,4.85
2023-02-23T17:10:30.493Z,7.00
2023-02-23T17:13:00.109Z,7.05
2023-02-23T17:15:29.142Z,8.63
2023-02-23T17:17:56.582Z,7.45
2023-02-23T17:20:26.921Z,5.32
2023-02-23T17:22:56.192Z,8.93
2023-02-23T17:25:26.559Z,5.95
2023-02-23T17:27:54.432Z,8.23
2023-02-23T17:30:22.296Z,6.88
2023-02-23T17:32:50.797Z,8.20
2023-02-23T17:35:18.722Z,10.70
2023-02-23T17:37:46.668Z,9.77
2023-02-23T17:40:16.548Z,8.30
2023-02-23T17:42:43.406Z,5.75
2023-02-23T17:45:10.644Z,7.50
2023-02-23T17:47:40.948Z,5.35
2023-02-23T17:50:08.068Z,6.75
2023-02-23T17:52:34.881Z,6.38
2023-02-23T17:55:01.783Z,6.22
2023-02-23T17:57:30.553Z,8.30
2023-02-23T17:59:57.582Z,4.88
2023-02-23T18:02:25.002Z,6.35
2023-02-23T18:04:52.257Z,5.75
2023-02-23T18:07:21.022Z,6.53
2023-02-23T18:09:50.044Z,7.82
2023-02-23T18:12:19.137Z,5.65
2023-02-23T18:14:46.565Z,7.20
2023-02-23T18:17:14.816Z,8.07
2023-02-23T18:19:42.162Z,6.90
2023-02-23T18:22:09.244Z,9.73
2023-02-23T18:24:37.112Z,8.50
2023-02-23T18:27:04.384Z,9.35
2023-02-23T18:29:34.112Z,11.15
2023-02-23T18:32:02.703Z,7.57
2023-02-23T18:34:30.056Z,13.90
2023-02-23T18:37:03.387Z,14.70
2023-02-23T18:39:33.520Z,9.00
2023-02-23T18:42:00.721Z,9.75
2023-02-23T18:44:27.690Z,9.32
2023-02-23T18:46:55.083Z,10.02
2023-02-23T18:49:23.968Z,7.47
2023-02-23T18:51:50.758Z,9.00
2023-02-23T18:54:18.497Z,7.53
2023-02-23T18:56:46.966Z,9.18
2023-02-23T18:59:14.304Z,11.43
2023-02-23T19:01:45.301Z,10.15
2023-02-23T19:04:12.818Z,11.82
2023-02-23T19:06:44.942Z,16.13
2023-02-23T19:09:14.250Z,16.80
2023-02-23T19:11:42.821Z,18.60
2023-02-23T19:14:13.455Z,15.23
2023-02-23T19:16:41.156Z,12.70
2023-02-23T19:19:08.314Z,9.77
2023-02-23T19:21:35.913Z,9.55
2023-02-23T19:24:04.042Z,10.80
2023-02-23T19:26:31.930Z,10.52
2023-02-23T19:28:58.767Z,12.43
2023-02-23T19:31:26.568Z,9.18
2023-02-23T19:33:55.966Z,9.57
2023-02-23T19:36:29.615Z,11.00
2023-02-23T19:39:06.097Z,7.35
2023-02-23T19:41:34.127Z,7.80
2023-02-23T19:44:01.311Z,11.55
2023-02-23T19:46:28.513Z,8.10
2023-02-23T19:48:56.099Z,10.55
2023-02-23T19:51:23.456Z,9.90
2023-02-23T19:53:54.310Z,8.82
2023-02-23T19:56:21.694Z,9.85
2023-02-23T19:58:49.348Z,8.43
2023-02-23T20:01:19.120Z,7.43
2023-02-23T20:03:49.541Z,7.43
2023-02-23T20:06:17.997Z,7.68
2023-02-23T20:08:45.283Z,7.20
2023-02-23T20:11:12.406Z,9.95
2023-02-23T20:13:40.378Z,11.50
2023-02-23T20:16:09.838Z,8.43
2023-02-23T20:18:38.683Z,9.75
2023-02-23T20:21:11.092Z,10.07
2023-02-23T20:23:37.859Z,8.30
2023-02-23T20:26:06.366Z,8.35
2023-02-23T20:28:33.886Z,10.05
2023-02-23T20:31:01.741Z,8.45
2023-02-23T20:33:32.005Z,7.90
2023-02-23T20:35:58.843Z,7.68
2023-02-23T20:38:25.517Z,13.43
2023-02-23T20:40:52.964Z,11.95
2023-02-23T20:43:19.778Z,10.80
2023-02-23T20:45:46.768Z,12.75
2023-02-23T20:48:13.567Z,9.10
2023-02-23T20:50:42.409Z,11.25
2023-02-23T20:53:09.143Z,11.15
2023-02-23T20:55:36.928Z,11.07
2023-02-23T20:58:05.230Z,12.68
2023-02-23T21:00:32.350Z,14.50
2023-02-23T21:03:01.476Z,14.93
2023-02-23T21:05:31.030Z,12.43
2023-02-23T21:08:02.021Z,11.50
2023-02-23T21:10:35.611Z,9.63
2023-02-23T21:13:02.760Z,13.70
2023-02-23T21:15:30.097Z,14.02
2023-02-23T21:17:58.519Z,15.05
2023-02-23T21:20:27.903Z,14.95
2023-02-23T21:22:55.581Z,16.98
2023-02-23T21:25:24.754Z,18.00
2023-02-23T21:27:52.135Z,15.50
2023-02-23T21:30:22.591Z,16.08
2023-02-23T21:32:52.015Z,19.60
2023-02-23T21:35:19.777Z,20.27
2023-02-23T21:37:47.394Z,18.77
2023-02-23T21:40:20.630Z,20.20
2023-02-23T21:42:47.968Z,19.67
2023-02-23T21:45:14.956Z,21.48
2023-02-23T21:47:44.624Z,18.67
2023-02-23T21:50:15.142Z,17.85
2023-02-23T21:52:45.375Z,22.77
2023-02-23T21:55:21.236Z,19.65
2023-02-23T21:57:48.853Z,23.58
2023-02-23T22:00:16.468Z,22.15
2023-02-23T22:02:46.294Z,14.38
2023-02-23T22:05:15.343Z,16.15
2023-02-23T22:07:48.268Z,13.15
2023-02-23T22:10:15.771Z,16.73
2023-02-23T22:12:42.518Z,15.88
2023-02-23T22:15:12.574Z,17.10
2023-02-23T22:17:39.256Z,15.25
2023-02-23T22:20:07.412Z,14.57
2023-02-23T22:22:36.190Z,11.18
2023-02-23T22:25:07.580Z,12.38
2023-02-23T22:27:34.302Z,10.57
2023-02-23T22:30:01.794Z,12.77
2023-02-23T22:32:32.779Z,10.70
2023-02-23T22:35:00.897Z,11.48
2023-02-23T22:37:32.101Z,10.18
2023-02-23T22:40:16.529Z,11.18
2023-02-23T22:42:49.229Z,10.38
2023-02-23T22:45:16.626Z,11.80
2023-02-23T22:47:43.356Z,13.25
2023-02-23T22:50:12.138Z,20.10
2023-02-23T22:52:38.941Z,22.08
2023-02-23T22:55:06.067Z,24.25
2023-02-23T22:57:32.889Z,20.73
2023-02-23T23:00:08.291Z,14.10
2023-02-23T23:02:36.229Z,18.35
2023-02-23T23:05:03.212Z,18.40
2023-02-23T23:07:31.168Z,17.98
2023-02-23T23:09:58.987Z,16.08
2023-02-23T23:12:28.042Z,12.48
2023-02-23T23:15:01.358Z,15.15
2023-02-23T23:17:31.971Z,13.95
2023-02-23T23:20:00.298Z,13.30
2023-02-23T23:22:27.588Z,15.60
2023-02-23T23:24:54.372Z,12.85
2023-02-23T23:27:21.498Z,16.48
2023-02-23T23:29:48.876Z,13.30
2023-02-23T23:32:19.256Z,14.32
2023-02-23T23:34:49.556Z,12.55
2023-02-23T23:37:18.149Z,15.15
2023-02-23T23:39:45.422Z,11.50
2023-02-23T23:42:12.881Z,12.20
2023-02-23T23:44:39.668Z,18.38
2023-02-23T23:47:06.487Z,12.73
2023-02-23T23:49:39.683Z,11.85
2023-02-23T23:52:06.418Z,12.43
2023-02-23T23:54:38.970Z,11.85
2023-02-23T23:57:06.658Z,10.60
2023-02-23T23:59:35.204Z,14.35
